LRODLHDC

Guest
Details From LROD - ORADEA
To LHDC - DEBRECEN
Flight Number -
Tags generated
Created
Modified
Stats Distance 31 nm / 57 km
Max Altitude 3,800 ft / 1,158 m
Waypoints 3
Social Downloads 1
Likes 0
Share VATSIM

Download

Looking for another format? Having issues loading an existing format? Contact us
Advertisement - Login to hide

Notes

Basic altitude profile: - Ascent Rate: 2500ft/min - Ascent Speed: 250kts - Cruise Altitude: 35000ft - Cruise Speed: 420kts - Descent Rate: 1500ft/min - Descent Speed: 250kts Options: - Use NATs: no - Use PACOTS: no - Use low airways: yes - Use high airways: no

Route

LROD NARKA LHDC

ID Type Via Altitude Latitude Longitude Leg Dist Tot Dist Heading (true) Name
O LROD APT - 0 ft / 0 m 47.02532˚ 21.90241˚ - 0 nm - ORADEA
NARKA FIX - 3,800 ft / 1,158 m 47.23582˚ 21.85167˚ 12 nm 12 nm 351° / 351° -
O LHDC APT - 0 ft / 0 m 47.48942˚ 21.61458˚ 18 nm 30 nm 328° / 328° DEBRECEN

Altitude Profile

Advertisement - Login to hide

LROD

Details ICAO LROD (OMR)
Name ORADEA
Region Romania
Timezone Europe/Bucharest (UTC+2.0)
Stats Elevation 465 ft / 142 m (AMSL)
Location 47.025323° 21.902410°
Runways 1
Magnetic Variation 5.237° E

METAR

LROD 131100Z 36006KT 9999 -RA SCT009 BKN011 OVC017 05/03 Q1017 R01/29//95

Decode

TAF

Not found

Departure Runways

ID Width Length Bearing (true) Bearing (mag) Surface Threshold Offset Overrun Length
01 98 ft / 30 m 5,862 ft / 1,787 m 11.12° 5.88° Concrete 0 ft / 0 m 0 ft / 0 m
19 98 ft / 30 m 5,862 ft / 1,787 m 191.13° 185.89° Concrete 0 ft / 0 m 0 ft / 0 m

LHDC

Details ICAO LHDC (DEB)
Name DEBRECEN
Region Hungary
Timezone Europe/Budapest (UTC+1.0)
Stats Elevation 359 ft / 109 m (AMSL)
Location 47.489417° 21.614576°
Runways 2
Magnetic Variation 5.244° E

METAR

LHDC 131045Z 34006KT 9999 OVC033 04/01 Q1018 RERA NOSIG

Decode

TAF

Not found

Destination Runways

ID Width Length Bearing (true) Bearing (mag) Surface Threshold Offset Overrun Length
05L 230 ft / 70 m 8,081 ft / 2,463 m 47.94° 42.70° Concrete 0 ft / 0 m 0 ft / 0 m
05R 131 ft / 40 m 8,186 ft / 2,495 m 47.82° 42.58° Concrete 0 ft / 0 m 49 ft / 15 m
23L 131 ft / 40 m 8,186 ft / 2,495 m 227.84° 222.60° Concrete 979 ft / 298 m 49 ft / 15 m
23R 230 ft / 70 m 8,081 ft / 2,463 m 227.95° 222.71° Concrete 0 ft / 0 m 0 ft / 0 m

Approach Navaids

Runway Type Ident Frequency Range Bearing (true) Bearing (mag) Slope Elevation
05R Localiser DCN 110.10 MHz 18 nm / 33 km 47.87° 42.62° - 359 ft / 109 m (AMSL)
05R Glidescope DCN 110.10 MHz 10 nm / 19 km 47.83° 42.59° 3.00° 359 ft / 109 m (AMSL)